createdAt,value
2019-03-25T00:00:41.716Z,7.30
2019-03-25T00:03:08.668Z,7.20
2019-03-25T00:05:34.868Z,7.10
2019-03-25T00:08:00.993Z,7.10
2019-03-25T00:10:27.095Z,7.00
2019-03-25T00:12:53.320Z,7.10
2019-03-25T00:15:19.566Z,7.20
2019-03-25T00:17:45.743Z,7.20
2019-03-25T00:20:12.183Z,7.30
2019-03-25T00:22:38.390Z,7.30
2019-03-25T00:25:04.889Z,7.30
2019-03-25T00:27:31.155Z,7.20
2019-03-25T00:29:57.315Z,7.20
2019-03-25T00:32:23.406Z,7.20
2019-03-25T00:34:52.206Z,7.30
2019-03-25T00:37:18.305Z,7.20
2019-03-25T00:39:44.419Z,7.10
2019-03-25T00:42:10.543Z,7.00
2019-03-25T00:44:37.121Z,7.00
2019-03-25T00:47:03.456Z,7.00
2019-03-25T00:49:29.566Z,7.00
2019-03-25T00:51:55.774Z,6.90
2019-03-25T00:54:21.850Z,6.90
2019-03-25T00:56:47.924Z,6.80
2019-03-25T00:59:14.059Z,6.70
2019-03-25T01:01:40.140Z,6.60
2019-03-25T01:04:06.391Z,6.50
2019-03-25T01:06:32.672Z,6.50
2019-03-25T01:08:58.756Z,6.50
2019-03-25T01:11:24.856Z,6.50
2019-03-25T01:13:50.970Z,6.50
2019-03-25T01:16:18.382Z,6.40
2019-03-25T01:18:45.573Z,6.40
2019-03-25T01:21:11.709Z,6.40
2019-03-25T01:23:37.836Z,6.30
2019-03-25T01:26:04.125Z,6.40
2019-03-25T01:28:30.240Z,6.40
2019-03-25T01:30:56.466Z,6.30
2019-03-25T01:33:23.274Z,6.30
2019-03-25T01:35:49.406Z,6.20
2019-03-25T01:38:15.475Z,6.20
2019-03-25T01:40:41.764Z,6.20
2019-03-25T01:43:07.884Z,6.10
2019-03-25T01:45:34.179Z,6.20
2019-03-25T01:48:01.394Z,6.20
2019-03-25T01:50:27.519Z,6.30
2019-03-25T01:52:53.610Z,6.30
2019-03-25T01:55:19.738Z,6.30
2019-03-25T01:57:45.904Z,6.30
2019-03-25T02:00:14.296Z,6.30
2019-03-25T02:02:40.471Z,6.40
2019-03-25T02:05:07.140Z,6.50
2019-03-25T02:07:33.542Z,6.60
2019-03-25T02:09:59.660Z,6.60
2019-03-25T02:12:25.805Z,6.80
2019-03-25T02:14:51.917Z,6.90
2019-03-25T02:17:18.117Z,7.00
2019-03-25T02:19:44.234Z,7.10
2019-03-25T02:22:10.421Z,7.20
2019-03-25T02:24:36.570Z,7.20
2019-03-25T02:27:02.889Z,7.20
2019-03-25T02:29:29.078Z,7.20
2019-03-25T02:31:55.152Z,7.20
2019-03-25T02:34:21.540Z,7.20
2019-03-25T02:36:47.609Z,7.20
2019-03-25T02:39:13.726Z,7.20
2019-03-25T02:41:40.182Z,7.20
2019-03-25T02:44:06.285Z,7.20
2019-03-25T02:46:32.409Z,7.20
2019-03-25T02:48:58.602Z,7.20
2019-03-25T02:51:24.699Z,7.20
2019-03-25T02:53:50.835Z,7.20
2019-03-25T02:56:17.123Z,7.10
2019-03-25T02:58:43.203Z,7.10
2019-03-25T03:01:09.309Z,7.10
2019-03-25T03:03:35.390Z,7.10
2019-03-25T03:06:01.518Z,7.10
2019-03-25T03:08:27.610Z,7.10
2019-03-25T03:10:53.733Z,7.20
2019-03-25T03:13:19.980Z,7.10
2019-03-25T03:15:46.044Z,7.10
2019-03-25T03:18:12.223Z,7.10
2019-03-25T03:20:38.419Z,7.00
2019-03-25T03:23:04.554Z,7.00
2019-03-25T03:25:30.670Z,7.10
2019-03-25T03:27:56.851Z,7.00
2019-03-25T03:30:23.052Z,6.90
2019-03-25T03:32:49.317Z,6.90
2019-03-25T03:35:15.517Z,6.90
2019-03-25T03:37:41.626Z,7.00
2019-03-25T03:40:08.245Z,7.10
2019-03-25T03:42:34.453Z,7.00
2019-03-25T03:45:00.605Z,7.00
2019-03-25T03:47:26.827Z,6.90
2019-03-25T03:49:52.927Z,7.00
2019-03-25T03:52:19.396Z,6.90
2019-03-25T03:54:46.078Z,6.80
2019-03-25T03:57:12.357Z,6.90
2019-03-25T03:59:38.559Z,6.70
2019-03-25T04:02:04.708Z,6.60
2019-03-25T04:04:31.005Z,6.70
2019-03-25T04:06:57.090Z,6.50
2019-03-25T04:09:23.215Z,6.50
2019-03-25T04:11:49.497Z,6.60
2019-03-25T04:14:15.625Z,6.50
2019-03-25T04:16:42.296Z,6.50
2019-03-25T04:19:08.584Z,6.60
2019-03-25T04:21:34.802Z,6.30
2019-03-25T04:24:00.886Z,6.20
2019-03-25T04:26:28.798Z,6.30
2019-03-25T04:28:55.038Z,6.20
2019-03-25T04:31:21.241Z,6.00
2019-03-25T04:33:47.368Z,5.90
2019-03-25T04:36:13.825Z,5.90
2019-03-25T04:38:39.999Z,6.00
2019-03-25T04:41:06.486Z,6.10
2019-03-25T04:43:32.732Z,6.10
2019-03-25T04:45:58.913Z,6.00
2019-03-25T04:48:25.055Z,5.80
2019-03-25T04:50:51.131Z,5.80
2019-03-25T04:53:17.214Z,5.90
2019-03-25T04:55:43.307Z,5.90
2019-03-25T04:58:09.544Z,5.70
2019-03-25T05:00:36.390Z,5.70
2019-03-25T05:03:03.290Z,5.60
2019-03-25T05:05:29.367Z,5.40
2019-03-25T05:07:55.523Z,5.40
2019-03-25T05:10:21.699Z,5.20
2019-03-25T05:12:47.835Z,5.20
2019-03-25T05:15:14.065Z,5.40
2019-03-25T05:17:40.231Z,5.20
2019-03-25T05:20:06.549Z,5.30
2019-03-25T05:22:32.615Z,5.30
2019-03-25T05:24:58.724Z,5.20
2019-03-25T05:27:24.823Z,5.10
2019-03-25T05:29:51.031Z,5.20
2019-03-25T05:32:17.116Z,5.20
2019-03-25T05:34:43.305Z,5.20
2019-03-25T05:37:09.744Z,5.10
2019-03-25T05:39:35.869Z,5.10
2019-03-25T05:42:03.007Z,5.20
2019-03-25T05:44:29.093Z,5.20
2019-03-25T05:46:55.235Z,5.10
2019-03-25T05:49:21.449Z,5.20
2019-03-25T05:51:47.571Z,5.30
2019-03-25T05:54:13.711Z,5.00
2019-03-25T05:56:39.823Z,5.10
2019-03-25T05:59:06.283Z,5.00
2019-03-25T06:01:32.365Z,5.00
2019-03-25T06:03:58.525Z,4.90
2019-03-25T06:06:24.708Z,5.00
2019-03-25T06:08:50.805Z,5.10
2019-03-25T06:11:16.922Z,5.20
2019-03-25T06:13:43.067Z,5.40
2019-03-25T06:16:09.238Z,5.20
2019-03-25T06:18:35.386Z,5.40
2019-03-25T06:21:01.547Z,5.00
2019-03-25T06:23:27.632Z,5.10
2019-03-25T06:25:53.831Z,5.30
2019-03-25T06:28:19.962Z,5.50
2019-03-25T06:30:46.153Z,5.40
2019-03-25T06:33:12.905Z,5.50
2019-03-25T06:35:39.150Z,5.70
2019-03-25T06:38:05.249Z,5.70
2019-03-25T06:40:31.367Z,5.60
2019-03-25T06:42:57.489Z,5.70
2019-03-25T06:45:23.603Z,5.80
2019-03-25T06:47:49.751Z,5.60
2019-03-25T06:50:15.969Z,5.60
2019-03-25T06:52:42.132Z,5.60
2019-03-25T06:55:08.857Z,5.70
2019-03-25T06:57:35.034Z,5.60
2019-03-25T07:00:02.964Z,5.60
2019-03-25T07:02:29.214Z,5.80
2019-03-25T07:04:55.320Z,5.80
2019-03-25T07:07:21.456Z,5.90
2019-03-25T07:09:47.527Z,6.10
2019-03-25T07:12:13.635Z,6.40
2019-03-25T07:14:40.085Z,6.10
2019-03-25T07:17:06.234Z,6.30
2019-03-25T07:19:32.303Z,6.50
2019-03-25T07:21:58.543Z,6.40
2019-03-25T07:24:24.634Z,6.50
2019-03-25T07:26:50.721Z,6.50
2019-03-25T07:29:16.837Z,6.60
2019-03-25T07:31:43.282Z,6.50
2019-03-25T07:34:09.360Z,6.50
2019-03-25T07:36:35.424Z,6.50
2019-03-25T07:39:01.595Z,6.50
2019-03-25T07:41:28.796Z,6.30
2019-03-25T07:43:55.078Z,6.40
2019-03-25T07:46:21.302Z,6.30
2019-03-25T07:48:47.530Z,6.40
2019-03-25T07:51:13.610Z,6.50
2019-03-25T07:53:39.740Z,6.60
2019-03-25T07:56:06.514Z,6.70
2019-03-25T07:58:32.728Z,6.80
2019-03-25T08:00:58.807Z,6.80
2019-03-25T08:03:24.962Z,6.80
2019-03-25T08:05:51.166Z,6.80
2019-03-25T08:08:17.326Z,6.80
2019-03-25T08:10:43.422Z,6.80
2019-03-25T08:13:09.651Z,6.80
2019-03-25T08:15:36.506Z,6.70
2019-03-25T08:18:03.291Z,6.80
2019-03-25T08:20:29.496Z,6.70
2019-03-25T08:22:55.616Z,6.70
2019-03-25T08:25:21.820Z,6.80
2019-03-25T08:27:59.215Z,6.70
2019-03-25T08:30:16.122Z,6.80
2019-03-25T08:32:42.254Z,6.60
2019-03-25T08:35:08.874Z,6.50
2019-03-25T08:37:34.948Z,6.50
2019-03-25T08:40:01.150Z,6.30
2019-03-25T08:42:27.527Z,6.30
2019-03-25T08:44:53.829Z,6.30
2019-03-25T08:47:20.116Z,6.30
2019-03-25T08:49:46.294Z,6.30
2019-03-25T08:52:12.802Z,6.40
2019-03-25T08:54:38.931Z,6.20
2019-03-25T08:57:05.382Z,6.30
2019-03-25T08:59:31.447Z,6.50
2019-03-25T09:01:57.561Z,6.40
2019-03-25T09:04:23.682Z,6.40
2019-03-25T09:06:49.789Z,6.20
2019-03-25T09:09:15.938Z,6.20
2019-03-25T09:11:43.017Z,6.30
2019-03-25T09:14:09.235Z,6.40
2019-03-25T09:16:35.767Z,6.30
2019-03-25T09:19:01.830Z,6.30
2019-03-25T09:21:27.953Z,6.40
2019-03-25T09:23:54.275Z,6.30
2019-03-25T09:26:20.704Z,6.20
2019-03-25T09:28:46.945Z,6.50
2019-03-25T09:31:14.017Z,6.60
2019-03-25T09:33:40.368Z,6.70
2019-03-25T09:36:06.589Z,6.60
2019-03-25T09:38:32.932Z,6.60
2019-03-25T09:40:59.061Z,6.70
2019-03-25T09:43:25.163Z,6.90
2019-03-25T09:45:51.294Z,7.00
2019-03-25T09:48:17.540Z,7.00
2019-03-25T09:50:43.849Z,7.00
2019-03-25T09:53:09.920Z,7.10
2019-03-25T09:55:36.091Z,7.20
2019-03-25T09:58:03.847Z,7.00
2019-03-25T10:00:31.190Z,6.80
2019-03-25T10:02:57.566Z,6.80
2019-03-25T10:05:23.639Z,6.90
2019-03-25T10:07:49.701Z,6.80
2019-03-25T10:10:15.833Z,6.90
2019-03-25T10:12:41.885Z,6.80
2019-03-25T10:15:08.255Z,6.90
2019-03-25T10:17:34.462Z,7.20
2019-03-25T10:20:00.597Z,7.30
2019-03-25T10:22:26.783Z,7.70
2019-03-25T10:24:52.992Z,7.90
2019-03-25T10:27:19.101Z,7.90
2019-03-25T10:29:45.275Z,8.00
2019-03-25T10:32:11.475Z,8.10
2019-03-25T10:34:37.588Z,7.90
2019-03-25T10:37:04.026Z,7.70
2019-03-25T10:39:30.204Z,7.70
2019-03-25T10:41:56.355Z,7.70
2019-03-25T10:44:22.414Z,7.60
2019-03-25T10:46:48.613Z,7.70
2019-03-25T10:49:16.181Z,7.70
2019-03-25T10:51:42.658Z,7.50
2019-03-25T10:54:08.807Z,7.50
2019-03-25T10:56:35.018Z,7.40
2019-03-25T10:59:01.215Z,7.40
2019-03-25T11:01:27.340Z,7.20
2019-03-25T11:03:53.420Z,7.10
2019-03-25T11:06:19.793Z,6.70
2019-03-25T11:08:45.918Z,6.20
2019-03-25T11:11:11.978Z,5.80
2019-03-25T11:13:38.100Z,5.70
2019-03-25T11:16:04.357Z,5.50
2019-03-25T11:18:30.555Z,5.40
2019-03-25T11:20:56.685Z,5.40
2019-03-25T11:23:22.869Z,5.50
2019-03-25T11:25:48.951Z,5.40
2019-03-25T11:28:15.090Z,5.30
2019-03-25T11:30:52.140Z,5.40
2019-03-25T11:33:18.543Z,5.50
2019-03-25T11:35:44.848Z,5.50
2019-03-25T11:38:11.123Z,5.80
2019-03-25T11:40:37.317Z,5.90
2019-03-25T11:43:03.596Z,6.20
2019-03-25T11:45:29.702Z,6.60
2019-03-25T11:47:55.839Z,6.90
2019-03-25T11:50:22.034Z,7.30
2019-03-25T11:52:48.155Z,7.40
2019-03-25T11:55:14.395Z,7.60
2019-03-25T11:57:40.506Z,8.00
2019-03-25T12:00:07.913Z,8.20
2019-03-25T12:02:35.323Z,8.40
2019-03-25T12:05:01.500Z,8.10
2019-03-25T12:07:27.760Z,8.00
2019-03-25T12:09:53.837Z,7.80
2019-03-25T12:12:20.085Z,7.70
2019-03-25T12:14:46.344Z,7.60
2019-03-25T12:17:12.522Z,7.30
2019-03-25T12:19:38.655Z,7.10
2019-03-25T12:22:04.725Z,6.80
2019-03-25T12:24:30.820Z,6.60
2019-03-25T12:26:56.954Z,6.60
2019-03-25T12:29:30.135Z,6.50
2019-03-25T12:31:51.227Z,6.40
2019-03-25T12:34:17.406Z,6.30
2019-03-25T12:36:43.654Z,6.20
2019-03-25T12:39:09.912Z,6.30
2019-03-25T12:41:36.101Z,6.30
2019-03-25T12:44:02.505Z,6.40
2019-03-25T12:46:28.634Z,6.60
2019-03-25T12:48:54.863Z,6.40
2019-03-25T12:51:20.990Z,6.40
2019-03-25T12:53:47.162Z,6.60
2019-03-25T12:56:13.312Z,6.90
2019-03-25T12:58:39.551Z,7.50
2019-03-25T13:01:05.944Z,7.60
2019-03-25T13:03:32.108Z,8.00
2019-03-25T13:05:58.256Z,7.50
2019-03-25T13:08:32.782Z,7.90
2019-03-25T13:10:52.424Z,8.60
2019-03-25T13:13:18.512Z,9.20
2019-03-25T13:15:44.603Z,9.20
2019-03-25T13:18:11.083Z,9.60
2019-03-25T13:20:37.183Z,9.30
2019-03-25T13:23:03.265Z,9.70
2019-03-25T13:25:29.392Z,10.10
2019-03-25T13:27:55.497Z,10.40
2019-03-25T13:30:21.844Z,10.50
2019-03-25T13:32:48.065Z,10.80
2019-03-25T13:35:14.200Z,11.00
2019-03-25T13:37:40.418Z,10.60
2019-03-25T13:40:07.221Z,10.30
2019-03-25T13:42:33.522Z,9.60
2019-03-25T13:44:59.601Z,9.20
2019-03-25T13:47:25.788Z,8.70
2019-03-25T13:49:51.912Z,8.80
2019-03-25T13:52:18.225Z,8.70
2019-03-25T13:54:44.343Z,8.30
2019-03-25T13:57:10.439Z,8.10
2019-03-25T13:59:36.579Z,8.00
2019-03-25T14:02:03.121Z,8.00
2019-03-25T14:04:29.297Z,8.00
2019-03-25T14:06:55.387Z,7.80
2019-03-25T14:09:21.605Z,7.50
2019-03-25T14:11:47.818Z,6.60
2019-03-25T14:14:13.958Z,5.90
2019-03-25T14:16:40.095Z,5.60
2019-03-25T14:19:06.194Z,5.50
2019-03-25T14:21:32.285Z,5.30
2019-03-25T14:23:58.409Z,5.20
2019-03-25T14:26:24.587Z,4.80
2019-03-25T14:28:50.876Z,4.50
2019-03-25T14:31:16.977Z,4.50
2019-03-25T14:33:43.099Z,4.40
2019-03-25T14:36:09.181Z,4.60
2019-03-25T14:38:35.310Z,4.80
2019-03-25T14:41:01.453Z,5.10
2019-03-25T14:43:27.546Z,5.60
2019-03-25T14:45:53.690Z,6.30
2019-03-25T14:48:19.887Z,7.50
2019-03-25T14:50:45.977Z,9.30
2019-03-25T14:53:12.108Z,10.90
2019-03-25T14:55:38.309Z,11.70
2019-03-25T14:58:04.581Z,12.10
2019-03-25T15:00:30.703Z,12.50
2019-03-25T15:02:56.783Z,13.00
2019-03-25T15:05:22.983Z,11.60
2019-03-25T15:07:49.221Z,9.90
2019-03-25T15:10:15.750Z,9.50
2019-03-25T15:12:42.007Z,8.70
2019-03-25T15:15:09.945Z,8.30
2019-03-25T15:17:36.139Z,7.80
2019-03-25T15:20:05.575Z,7.90
2019-03-25T15:22:31.850Z,7.70
2019-03-25T15:24:58.002Z,7.50
2019-03-25T15:27:24.095Z,7.10
2019-03-25T15:29:50.231Z,6.70
2019-03-25T15:32:18.587Z,6.50
2019-03-25T15:34:44.356Z,6.10
2019-03-25T15:37:10.477Z,6.00
2019-03-25T15:39:46.283Z,5.90
2019-03-25T15:42:04.679Z,6.00
2019-03-25T15:44:30.883Z,6.00
2019-03-25T15:46:57.025Z,6.10
2019-03-25T15:49:23.210Z,6.00
2019-03-25T15:51:49.345Z,6.20
2019-03-25T15:54:15.518Z,6.30
2019-03-25T15:56:42.056Z,6.30
2019-03-25T15:59:08.171Z,6.50
2019-03-25T16:01:34.395Z,6.60
2019-03-25T16:04:00.515Z,6.60
2019-03-25T16:06:26.752Z,6.60
2019-03-25T16:08:52.814Z,6.60
2019-03-25T16:11:18.931Z,6.70
2019-03-25T16:13:45.165Z,6.60
2019-03-25T16:16:11.389Z,6.80
2019-03-25T16:18:39.090Z,6.90
2019-03-25T16:21:05.874Z,7.00
2019-03-25T16:23:32.071Z,7.10
2019-03-25T16:25:58.178Z,7.00
2019-03-25T16:28:24.285Z,7.00
2019-03-25T16:30:58.651Z,7.10
2019-03-25T16:33:18.545Z,7.10
2019-03-25T16:35:44.726Z,7.10
2019-03-25T16:38:10.852Z,7.10
2019-03-25T16:40:37.150Z,7.10
2019-03-25T16:43:03.276Z,7.00
2019-03-25T16:45:29.414Z,6.90
2019-03-25T16:47:55.523Z,7.00
2019-03-25T16:50:21.780Z,7.00
2019-03-25T16:52:48.009Z,6.90
2019-03-25T16:55:14.254Z,7.00
2019-03-25T16:57:40.466Z,6.90
2019-03-25T17:00:07.158Z,6.70
2019-03-25T17:02:33.331Z,6.50
2019-03-25T17:04:59.449Z,6.60
2019-03-25T17:07:25.599Z,6.60
2019-03-25T17:09:51.767Z,6.50
2019-03-25T17:12:17.971Z,6.50
2019-03-25T17:14:44.149Z,6.40
2019-03-25T17:17:10.335Z,6.40
2019-03-25T17:19:36.604Z,6.40
2019-03-25T17:22:03.016Z,6.30
2019-03-25T17:24:29.124Z,6.20
2019-03-25T17:26:55.288Z,6.30
2019-03-25T17:29:21.675Z,6.30
2019-03-25T17:31:47.816Z,6.40
2019-03-25T17:34:14.019Z,6.40
2019-03-25T17:36:40.175Z,6.50
2019-03-25T17:39:07.698Z,6.40
2019-03-25T17:41:33.816Z,6.30
2019-03-25T17:43:59.977Z,6.30
2019-03-25T17:46:26.198Z,6.20
2019-03-25T17:48:52.319Z,6.30
2019-03-25T17:51:18.442Z,6.40
2019-03-25T17:53:44.630Z,6.20
2019-03-25T17:56:11.028Z,6.10
2019-03-25T17:58:37.306Z,6.10
2019-03-25T18:01:06.034Z,6.10
2019-03-25T18:03:32.196Z,6.10
2019-03-25T18:05:58.441Z,5.90
2019-03-25T18:08:24.647Z,5.90
2019-03-25T18:10:50.898Z,5.80
2019-03-25T18:13:22.222Z,5.70
2019-03-25T18:15:45.818Z,5.90
2019-03-25T18:18:12.044Z,6.00
2019-03-25T18:20:38.288Z,5.90
2019-03-25T18:23:04.796Z,5.90
2019-03-25T18:25:31.087Z,6.00
2019-03-25T18:27:57.231Z,6.00
2019-03-25T18:30:31.952Z,6.00
2019-03-25T18:32:58.014Z,5.90
2019-03-25T18:35:24.511Z,5.80
2019-03-25T18:37:50.643Z,5.80
2019-03-25T18:40:17.684Z,5.80
2019-03-25T18:42:44.023Z,5.70
2019-03-25T18:45:10.362Z,5.50
2019-03-25T18:47:36.759Z,5.40
2019-03-25T18:50:05.732Z,5.20
2019-03-25T18:52:31.977Z,5.10
2019-03-25T18:54:58.168Z,5.00
2019-03-25T18:57:24.457Z,5.00
2019-03-25T18:59:50.589Z,4.90
2019-03-25T19:02:16.923Z,5.00
2019-03-25T19:04:43.025Z,5.00
2019-03-25T19:07:09.255Z,4.90
2019-03-25T19:09:35.444Z,4.90
2019-03-25T19:12:01.589Z,4.90
2019-03-25T19:14:27.892Z,4.80
2019-03-25T19:16:54.053Z,4.80
2019-03-25T19:19:20.318Z,4.70
2019-03-25T19:21:46.435Z,4.70
2019-03-25T19:24:12.683Z,4.70
2019-03-25T19:26:38.915Z,4.60
2019-03-25T19:29:05.155Z,4.60
2019-03-25T19:31:31.492Z,4.50
2019-03-25T19:33:57.613Z,4.40
2019-03-25T19:36:23.810Z,4.40
2019-03-25T19:38:50.068Z,4.30
2019-03-25T19:41:18.762Z,4.20
2019-03-25T19:43:44.278Z,4.10
2019-03-25T19:46:10.489Z,4.20
2019-03-25T19:48:36.683Z,4.20
2019-03-25T19:51:02.873Z,4.20
2019-03-25T19:53:29.076Z,4.30
2019-03-25T19:55:55.176Z,4.40
2019-03-25T19:58:21.450Z,4.60
2019-03-25T20:00:47.616Z,4.70
2019-03-25T20:03:13.796Z,4.80
2019-03-25T20:05:40.028Z,4.90
2019-03-25T20:08:06.446Z,4.90
2019-03-25T20:10:34.857Z,4.90
2019-03-25T20:13:01.885Z,4.90
2019-03-25T20:15:31.125Z,4.80
2019-03-25T20:17:56.378Z,4.80
2019-03-25T20:20:22.551Z,4.80
2019-03-25T20:22:48.872Z,4.70
2019-03-25T20:25:15.149Z,4.80
2019-03-25T20:27:41.321Z,4.90
2019-03-25T20:30:18.473Z,4.80
2019-03-25T20:32:44.693Z,4.90
2019-03-25T20:35:11.434Z,4.90
2019-03-25T20:37:37.762Z,4.70
2019-03-25T20:40:06.942Z,4.90
2019-03-25T20:42:33.045Z,4.90
2019-03-25T20:44:59.189Z,4.90
2019-03-25T20:47:25.364Z,5.00
2019-03-25T20:49:51.518Z,5.10
2019-03-25T20:52:17.867Z,5.00
2019-03-25T20:54:43.942Z,5.00
2019-03-25T20:57:10.035Z,4.90
2019-03-25T20:59:36.196Z,4.80
2019-03-25T21:02:02.588Z,4.80
2019-03-25T21:04:28.785Z,4.70
2019-03-25T21:06:55.060Z,4.50
2019-03-25T21:09:21.305Z,4.60
2019-03-25T21:11:47.508Z,4.70
2019-03-25T21:14:13.653Z,4.70
2019-03-25T21:16:40.145Z,4.70
2019-03-25T21:19:06.628Z,4.60
2019-03-25T21:21:32.757Z,4.50
2019-03-25T21:23:59.316Z,4.50
2019-03-25T21:26:25.538Z,4.20
2019-03-25T21:28:51.714Z,4.20
2019-03-25T21:31:17.905Z,4.20
2019-03-25T21:33:44.246Z,4.10
2019-03-25T21:36:10.494Z,4.00
2019-03-25T21:38:36.821Z,3.90
2019-03-25T21:41:03.319Z,3.90
2019-03-25T21:43:29.621Z,3.80
2019-03-25T21:45:56.130Z,3.70
2019-03-25T21:48:22.283Z,3.70
2019-03-25T21:50:48.561Z,3.80
2019-03-25T21:53:14.742Z,3.80
2019-03-25T21:55:41.135Z,3.70
2019-03-25T21:58:07.365Z,3.80
2019-03-25T22:00:33.447Z,3.70
2019-03-25T22:03:11.406Z,3.70
2019-03-25T22:05:27.608Z,3.60
2019-03-25T22:07:53.734Z,3.40
2019-03-25T22:10:19.856Z,3.20
2019-03-25T22:12:46.067Z,3.10
2019-03-25T22:15:12.488Z,3.20
2019-03-25T22:17:38.819Z,3.30
2019-03-25T22:20:08.346Z,3.30
2019-03-25T22:22:34.637Z,3.20
2019-03-25T22:25:00.777Z,3.20
2019-03-25T22:27:27.012Z,3.40
2019-03-25T22:29:53.202Z,3.60
2019-03-25T22:32:19.430Z,3.40
2019-03-25T22:34:45.672Z,3.20
2019-03-25T22:37:11.833Z,3.10
2019-03-25T22:39:38.085Z,3.10
2019-03-25T22:42:04.203Z,3.10
2019-03-25T22:44:30.368Z,3.10
2019-03-25T22:46:56.582Z,3.10
2019-03-25T22:49:22.816Z,3.00
2019-03-25T22:51:48.970Z,3.00
2019-03-25T22:54:15.130Z,2.90
2019-03-25T22:56:41.280Z,3.00
2019-03-25T22:59:07.484Z,3.10
2019-03-25T23:01:33.866Z,2.80
2019-03-25T23:03:59.996Z,2.90
2019-03-25T23:06:26.209Z,2.70
2019-03-25T23:08:52.299Z,2.70
2019-03-25T23:11:18.547Z,2.90
2019-03-25T23:13:44.610Z,2.90
2019-03-25T23:16:10.779Z,3.00
2019-03-25T23:18:37.170Z,2.70
2019-03-25T23:21:03.557Z,2.40
2019-03-25T23:23:29.693Z,2.40
2019-03-25T23:25:55.790Z,2.30
2019-03-25T23:28:21.873Z,2.20
2019-03-25T23:30:48.110Z,2.30
2019-03-25T23:33:14.312Z,2.10
2019-03-25T23:35:40.388Z,2.00
2019-03-25T23:38:06.479Z,2.00
2019-03-25T23:40:32.629Z,2.20
2019-03-25T23:42:58.944Z,2.30
2019-03-25T23:45:25.180Z,2.10
2019-03-25T23:47:51.371Z,2.10
2019-03-25T23:50:17.515Z,2.30
2019-03-25T23:52:43.738Z,2.20
2019-03-25T23:55:10.241Z,2.10
2019-03-25T23:57:36.360Z,2.10
